Time;durP1;ratioP1;P1;durP2;ratioP2;P2;SDS_P1;SDS_P2;PMS_P1;PMS_P2;Temp;Humidity;BMP_temperature;BMP_pressure;BME280_temperature;BME280_humidity;BME280_pressure;Samples;Min_cycle;Max_cycle;Signal;HPM_P1;HPM_P2
2024/03/17 00:01:18;;;;;;;13.27;4.65;;;;;;;13.81;46.29;102103.59;5017482;28;20026;-62
2024/03/17 00:03:43;;;;;;;8.52;4.30;;;;;;;13.84;46.45;102093.47;4999759;28;20041;-63
2024/03/17 00:06:09;;;;;;;8.18;4.75;;;;;;;13.85;46.69;102086.22;5017684;28;20042;-63
2024/03/17 00:08:35;;;;;;;7.65;4.63;;;;;;;13.85;45.22;102089.75;4981670;28;20037;-62
2024/03/17 00:11:00;;;;;;;9.85;4.05;;;;;;;13.87;46.36;102086.97;4980257;28;20188;-62
2024/03/17 00:13:26;;;;;;;10.63;4.40;;;;;;;13.84;46.19;102077.31;5013856;28;20049;-62
2024/03/17 00:15:51;;;;;;;6.65;4.78;;;;;;;13.89;45.94;102085.00;4980052;28;20034;-62
2024/03/17 00:18:18;;;;;;;7.70;4.18;;;;;;;13.88;46.87;102083.28;5013749;28;20123;-62
2024/03/17 00:20:43;;;;;;;7.45;5.28;;;;;;;13.87;45.76;102081.59;5013663;28;20510;-63
2024/03/17 00:23:11;;;;;;;8.93;4.75;;;;;;;13.90;45.89;102086.72;5013666;28;20068;-62
2024/03/17 00:25:37;;;;;;;8.50;4.72;;;;;;;13.90;45.51;102075.97;4980235;28;20045;-63
2024/03/17 00:28:03;;;;;;;7.20;4.30;;;;;;;13.89;46.41;102068.84;5013705;28;20026;-62
2024/03/17 00:30:28;;;;;;;5.97;4.30;;;;;;;13.92;46.42;102071.31;5013956;28;20042;-62
2024/03/17 00:32:55;;;;;;;11.40;5.45;;;;;;;13.91;45.68;102069.56;4996474;28;20029;-62
2024/03/17 00:35:20;;;;;;;9.63;4.80;;;;;;;13.92;45.26;102053.31;4996414;28;20396;-63
2024/03/17 00:37:49;;;;;;;6.60;4.45;;;;;;;13.94;46.72;102055.88;4996589;28;20034;-61
2024/03/17 00:40:16;;;;;;;7.38;4.25;;;;;;;13.93;47.11;102062.25;4980151;28;20520;-62
2024/03/17 00:42:42;;;;;;;10.63;4.82;;;;;;;13.92;46.53;102052.44;5013832;28;20548;-62
2024/03/17 00:45:07;;;;;;;5.75;4.28;;;;;;;13.92;45.73;102053.31;4996698;28;20026;-64
2024/03/17 00:47:33;;;;;;;9.10;4.40;;;;;;;13.94;46.29;102058.56;4996177;28;20129;-62
2024/03/17 00:49:58;;;;;;;9.43;4.80;;;;;;;13.94;46.82;102050.47;4996241;28;20113;-62
2024/03/17 00:52:24;;;;;;;7.72;5.35;;;;;;;13.95;47.16;102052.22;4996207;28;20041;-62
2024/03/17 00:54:49;;;;;;;8.40;4.55;;;;;;;13.95;46.59;102045.00;4996681;28;20053;-62
2024/03/17 00:57:18;;;;;;;8.07;5.22;;;;;;;13.98;46.78;102046.59;4996546;28;20033;-62
2024/03/17 00:59:44;;;;;;;8.88;4.70;;;;;;;13.98;45.69;102047.44;4996446;28;20026;-62
2024/03/17 01:02:12;;;;;;;8.55;5.40;;;;;;;13.98;47.24;102046.59;5013637;28;20098;-63
2024/03/17 01:04:37;;;;;;;8.18;4.88;;;;;;;13.98;46.06;102052.84;5013672;28;20501;-62
2024/03/17 01:07:03;;;;;;;9.50;4.93;;;;;;;13.98;46.48;102041.19;4996014;28;20040;-62
2024/03/17 01:09:28;;;;;;;7.78;5.43;;;;;;;13.97;46.26;102034.94;4995833;28;20045;-62
2024/03/17 01:11:54;;;;;;;8.55;5.05;;;;;;;13.98;46.02;102033.13;4995732;28;20042;-62
2024/03/17 01:14:19;;;;;;;9.32;5.57;;;;;;;13.96;47.11;102029.66;5013417;28;20046;-63
2024/03/17 01:16:44;;;;;;;7.93;5.30;;;;;;;13.95;46.52;102026.13;4995987;28;20030;-63
2024/03/17 01:19:10;;;;;;;9.65;5.20;;;;;;;13.98;47.15;102035.81;4995763;28;20038;-63
2024/03/17 01:21:35;;;;;;;8.93;5.00;;;;;;;13.94;46.73;102023.53;4995835;28;20469;-63
2024/03/17 01:24:00;;;;;;;8.68;4.93;;;;;;;13.96;45.96;102021.56;4995827;28;20127;-63
2024/03/17 01:26:26;;;;;;;7.07;4.55;;;;;;;13.94;47.32;102029.78;4995569;28;20065;-63
2024/03/17 01:28:52;;;;;;;11.45;5.18;;;;;;;13.94;46.33;102015.47;4995762;28;20040;-62
2024/03/17 01:31:17;;;;;;;8.95;5.07;;;;;;;13.93;46.88;102017.28;4995194;28;20034;-63
2024/03/17 01:33:42;;;;;;;8.38;5.03;;;;;;;13.92;46.53;102003.97;5013744;28;20512;-63
2024/03/17 01:36:08;;;;;;;7.05;5.05;;;;;;;13.90;46.32;102014.00;4997586;28;20413;-63
2024/03/17 01:38:33;;;;;;;9.20;4.93;;;;;;;13.90;46.27;102011.31;4998258;28;20057;-63
2024/03/17 01:40:59;;;;;;;7.88;4.95;;;;;;;13.86;46.96;102004.44;4997420;28;20113;-63
2024/03/17 01:43:24;;;;;;;11.20;5.47;;;;;;;13.87;46.73;102000.78;4995916;28;20490;-63
2024/03/17 01:45:50;;;;;;;9.68;5.15;;;;;;;13.82;46.43;102000.25;4996821;28;20092;-63
2024/03/17 01:48:17;;;;;;;10.60;5.32;;;;;;;13.79;46.66;101995.16;4979077;28;20034;-63
2024/03/17 01:50:43;;;;;;;7.53;4.40;;;;;;;13.79;47.09;102003.22;4995507;28;20061;-63
2024/03/17 01:53:11;;;;;;;9.43;6.07;;;;;;;13.74;47.15;102006.25;4979120;28;20169;-62
2024/03/17 01:55:42;;;;;;;9.35;4.82;;;;;;;13.72;46.28;102001.97;4978991;28;20062;-62
2024/03/17 01:58:10;;;;;;;9.50;5.13;;;;;;;13.69;46.62;102002.22;4979434;28;20117;-63
2024/03/17 02:00:36;;;;;;;11.05;6.03;;;;;;;13.66;46.90;102000.63;4995706;28;20034;-63
2024/03/17 02:03:12;;;;;;;9.70;4.70;;;;;;;13.64;47.28;101999.91;5012989;28;20161;-62
2024/03/17 02:05:39;;;;;;;10.18;5.93;;;;;;;13.65;46.96;101995.38;4995219;28;20034;-62
2024/03/17 02:08:05;;;;;;;12.52;4.97;;;;;;;13.64;46.05;102004.41;4995233;28;20037;-62
2024/03/17 02:10:30;;;;;;;8.65;5.10;;;;;;;13.64;46.57;101999.03;5012810;28;20107;-63
2024/03/17 02:12:56;;;;;;;8.35;4.72;;;;;;;13.69;46.34;102008.47;4995353;28;20030;-62
2024/03/17 02:15:21;;;;;;;6.43;4.53;;;;;;;13.70;46.43;102003.94;4995336;28;20030;-63
2024/03/17 02:17:46;;;;;;;9.85;5.80;;;;;;;13.73;46.96;102003.72;4995337;28;20125;-62
2024/03/17 02:20:13;;;;;;;12.63;5.07;;;;;;;13.73;45.93;101992.94;4995120;28;20124;-63
2024/03/17 02:22:39;;;;;;;8.10;5.22;;;;;;;13.74;46.33;101983.84;5012655;28;20124;-62
2024/03/17 02:25:07;;;;;;;7.78;4.88;;;;;;;13.76;46.36;101987.31;4995282;28;20060;-63
2024/03/17 02:27:33;;;;;;;6.63;4.40;;;;;;;13.78;47.51;101990.72;4994987;28;20037;-62
2024/03/17 02:29:58;;;;;;;7.65;4.65;;;;;;;13.79;47.35;101993.28;4978785;28;20045;-62
2024/03/17 02:32:25;;;;;;;6.72;4.10;;;;;;;13.83;47.66;101984.00;4995647;28;20030;-63
2024/03/17 02:34:50;;;;;;;7.28;4.18;;;;;;;13.83;47.92;101981.31;4995211;28;20038;-62
2024/03/17 02:37:16;;;;;;;7.30;4.63;;;;;;;13.86;46.66;101983.75;4994890;28;20034;-62
2024/03/17 02:39:42;;;;;;;12.32;4.35;;;;;;;13.87;47.51;101973.84;5012539;28;20038;-62
2024/03/17 02:42:08;;;;;;;7.18;4.40;;;;;;;13.86;46.05;101970.28;4995752;28;20048;-62
2024/03/17 02:44:35;;;;;;;5.80;4.18;;;;;;;13.84;46.49;101968.69;4982513;28;20034;-62
2024/03/17 02:47:02;;;;;;;8.95;3.72;;;;;;;13.84;46.54;101968.69;5016255;28;20472;-63
2024/03/17 02:49:28;;;;;;;7.85;4.13;;;;;;;13.85;47.46;101982.03;4998483;28;20402;-63
2024/03/17 02:51:54;;;;;;;6.20;4.10;;;;;;;13.86;47.37;101980.19;4982024;28;20046;-63
2024/03/17 02:54:21;;;;;;;7.18;4.15;;;;;;;13.86;46.34;101966.75;4982208;28;20084;-63
2024/03/17 02:56:46;;;;;;;6.97;4.13;;;;;;;13.83;46.91;101962.44;4998306;28;20107;-63
2024/03/17 02:59:12;;;;;;;7.47;4.00;;;;;;;13.84;46.39;101956.09;4998416;28;20034;-63
2024/03/17 03:01:37;;;;;;;7.78;3.78;;;;;;;13.85;47.27;101965.00;4982108;28;20026;-63
2024/03/17 03:04:03;;;;;;;7.53;4.10;;;;;;;13.85;47.22;101956.94;5016207;28;20034;-63
2024/03/17 03:06:28;;;;;;;8.30;4.05;;;;;;;13.82;46.40;101960.72;4999306;28;20518;-63
2024/03/17 03:08:53;;;;;;;7.00;4.07;;;;;;;13.85;47.33;101959.63;5017316;28;20120;-63
2024/03/17 03:11:19;;;;;;;7.72;3.88;;;;;;;13.84;47.86;101956.09;5018559;28;20409;-63
2024/03/17 03:13:44;;;;;;;6.57;4.15;;;;;;;13.85;46.28;101959.63;5019259;28;20054;-63
2024/03/17 03:16:11;;;;;;;8.77;4.40;;;;;;;13.88;46.29;101959.38;4983341;28;20057;-63
2024/03/17 03:18:38;;;;;;;9.48;4.38;;;;;;;13.89;47.22;101950.34;4998393;28;20096;-63
2024/03/17 03:21:04;;;;;;;7.97;3.95;;;;;;;13.89;47.05;101959.28;4982396;28;20030;-63
2024/03/17 03:23:30;;;;;;;6.65;4.35;;;;;;;13.93;46.25;101962.59;4998325;28;20389;-63
2024/03/17 03:25:57;;;;;;;5.18;3.53;;;;;;;13.95;47.69;101960.63;4997902;28;20034;-63
2024/03/17 03:28:23;;;;;;;4.15;3.63;;;;;;;13.97;46.70;101961.34;4997862;28;20405;-63
2024/03/17 03:30:48;;;;;;;6.35;3.53;;;;;;;14.00;46.70;101958.41;4997706;28;20045;-63
2024/03/17 03:33:13;;;;;;;7.88;3.83;;;;;;;14.02;47.10;101956.44;5015124;28;20433;-62
2024/03/17 03:35:39;;;;;;;7.85;3.55;;;;;;;14.09;47.87;101948.72;4997841;28;20036;-63
2024/03/17 03:38:05;;;;;;;4.75;3.22;;;;;;;14.14;46.86;101949.19;4997922;28;20099;-63
2024/03/17 03:40:30;;;;;;;4.03;2.97;;;;;;;14.14;46.83;101935.72;4997531;28;20502;-62
2024/03/17 03:42:57;;;;;;;5.47;3.42;;;;;;;14.20;47.66;101944.19;4997575;28;20035;-63
2024/03/17 03:45:22;;;;;;;5.47;3.30;;;;;;;14.23;47.29;101935.84;5014851;28;20034;-63
2024/03/17 03:47:48;;;;;;;5.13;3.05;;;;;;;14.27;47.95;101942.69;4997305;28;20040;-63
2024/03/17 03:50:22;;;;;;;3.40;2.70;;;;;;;14.29;47.46;101937.19;4997254;28;20387;-63
2024/03/17 03:52:48;;;;;;;5.97;3.15;;;;;;;14.33;46.41;101933.28;4980726;28;20046;-63
2024/03/17 03:55:16;;;;;;;6.05;3.75;;;;;;;14.36;47.47;101927.63;5013803;28;20058;-63
2024/03/17 03:57:42;;;;;;;4.88;2.53;;;;;;;14.38;46.45;101925.66;5014575;28;20072;-63
2024/03/17 04:00:14;;;;;;;4.30;2.80;;;;;;;14.37;47.36;101924.81;4997226;28;20017;-63
2024/03/17 04:02:39;;;;;;;3.35;2.58;;;;;;;14.37;47.46;101919.44;4997006;28;20018;-63
2024/03/17 04:05:05;;;;;;;7.57;3.45;;;;;;;14.39;47.38;101922.84;5014539;28;20532;-63
2024/03/17 04:07:31;;;;;;;4.38;2.80;;;;;;;14.38;47.30;101926.53;4996982;28;20036;-63
2024/03/17 04:09:56;;;;;;;7.47;2.63;;;;;;;14.39;47.94;101922.84;4997976;28;20557;-63
2024/03/17 04:12:27;;;;;;;4.35;2.72;;;;;;;14.39;47.93;101927.38;4997074;28;20438;-63
2024/03/17 04:14:53;;;;;;;5.72;3.17;;;;;;;14.40;47.29;101923.72;5014607;28;20037;-65
2024/03/17 04:17:21;;;;;;;5.13;3.33;;;;;;;14.40;47.75;101916.50;4997014;28;20030;-65
2024/03/17 04:19:50;;;;;;;4.32;2.97;;;;;;;14.40;46.78;101908.41;5014253;28;20490;-65
2024/03/17 04:22:16;;;;;;;4.55;3.17;;;;;;;14.40;46.20;101908.41;4996916;28;20057;-65
2024/03/17 04:24:43;;;;;;;3.90;2.40;;;;;;;14.39;47.93;101909.38;4997126;28;20030;-65
2024/03/17 04:27:08;;;;;;;3.90;2.85;;;;;;;14.38;47.06;101904.09;4980505;28;20037;-66
2024/03/17 04:29:34;;;;;;;7.00;2.67;;;;;;;14.38;47.23;101910.34;4980463;28;20030;-65
2024/03/17 04:32:00;;;;;;;4.43;2.70;;;;;;;14.35;46.32;101909.78;5013983;28;20156;-65
2024/03/17 04:34:27;;;;;;;3.80;2.65;;;;;;;14.32;46.71;101916.25;5013806;28;20446;-64
2024/03/17 04:36:53;;;;;;;5.25;3.30;;;;;;;14.29;47.56;101902.97;4996618;28;20034;-65
2024/03/17 04:39:19;;;;;;;5.95;2.72;;;;;;;14.25;47.43;101903.38;4996900;28;20418;-65
2024/03/17 04:41:45;;;;;;;3.75;2.85;;;;;;;14.23;46.29;101903.50;4996540;28;20411;-65
2024/03/17 04:44:10;;;;;;;5.75;3.05;;;;;;;14.18;47.58;101911.09;4996373;28;20030;-65
2024/03/17 04:46:35;;;;;;;8.35;2.83;;;;;;;14.11;47.01;101896.41;5013842;28;20160;-65
2024/03/17 04:49:03;;;;;;;4.85;3.42;;;;;;;14.06;46.06;101898.66;5014042;28;20117;-66
2024/03/17 04:51:28;;;;;;;8.25;2.70;;;;;;;13.98;47.04;101893.03;4980247;28;20034;-65
2024/03/17 04:53:54;;;;;;;6.97;3.15;;;;;;;13.93;45.84;101892.56;4996235;28;20044;-65
2024/03/17 04:56:19;;;;;;;5.65;3.42;;;;;;;13.90;46.76;101890.09;4995802;28;20038;-65
2024/03/17 04:58:44;;;;;;;5.47;2.97;;;;;;;13.82;47.06;101885.31;4997334;28;20045;-66
2024/03/17 05:01:10;;;;;;;7.22;3.72;;;;;;;13.78;46.79;101885.69;4996043;28;20061;-65
2024/03/17 05:03:35;;;;;;;4.85;3.15;;;;;;;13.74;47.19;101889.59;5013585;28;20109;-65
2024/03/17 05:06:02;;;;;;;5.13;3.80;;;;;;;13.70;46.17;101890.84;5013807;28;20033;-65
2024/03/17 05:08:28;;;;;;;7.10;3.92;;;;;;;13.64;46.67;101900.28;4996034;28;20054;-65
2024/03/17 05:11:07;;;;;;;9.57;3.47;;;;;;;13.61;47.33;101896.97;4995952;28;20042;-65
2024/03/17 05:13:34;;;;;;;6.82;3.70;;;;;;;13.55;46.28;101892.06;4980473;28;20041;-65
2024/03/17 05:16:01;;;;;;;4.80;3.70;;;;;;;13.50;46.63;101891.59;4996007;28;20042;-65
2024/03/17 05:18:26;;;;;;;6.35;4.07;;;;;;;13.45;47.39;101891.09;4996180;28;20089;-66
2024/03/17 05:21:05;;;;;;;6.68;3.58;;;;;;;13.47;47.40;101889.13;4995737;28;20565;-66
2024/03/17 05:23:31;;;;;;;5.15;2.95;;;;;;;13.45;47.33;101896.47;4979791;28;20092;-65
2024/03/17 05:25:58;;;;;;;7.78;3.78;;;;;;;13.43;47.91;101888.50;4995743;28;20041;-66
2024/03/17 05:28:24;;;;;;;5.03;3.60;;;;;;;13.43;46.37;101882.28;4995810;28;20040;-65
2024/03/17 05:30:50;;;;;;;3.90;2.90;;;;;;;13.40;47.33;101883.38;4979432;28;20046;-65
2024/03/17 05:33:17;;;;;;;9.30;3.60;;;;;;;13.40;47.71;101889.59;4995359;28;20034;-63
2024/03/17 05:36:07;;;;;;;6.43;3.63;;;;;;;13.39;47.38;101885.22;4979514;28;20041;-63
2024/03/17 05:38:33;;;;;;;4.95;3.28;;;;;;;13.38;46.82;101880.81;5013292;28;20049;-63
2024/03/17 05:41:08;;;;;;;5.60;3.45;;;;;;;13.42;47.17;101886.81;4995730;28;20490;-63
2024/03/17 05:43:38;;;;;;;4.53;3.10;;;;;;;13.40;47.24;101886.91;4995749;28;20029;-63
2024/03/17 05:46:08;;;;;;;9.13;3.33;;;;;;;13.43;47.80;101884.00;4995819;28;20029;-63
2024/03/17 05:48:34;;;;;;;7.50;3.38;;;;;;;13.43;48.01;101878.59;4996135;28;20038;-63
2024/03/17 05:51:03;;;;;;;5.10;3.10;;;;;;;13.43;46.46;101875.91;4979216;28;20084;-63
2024/03/17 05:53:28;;;;;;;5.22;3.25;;;;;;;13.46;47.29;101871.25;4995416;28;20034;-63
2024/03/17 05:55:55;;;;;;;5.57;2.80;;;;;;;13.52;47.79;101887.78;4995232;28;20104;-63
2024/03/17 05:58:20;;;;;;;4.28;3.15;;;;;;;13.55;46.77;101882.16;4979389;28;20061;-63
2024/03/17 06:00:46;;;;;;;3.17;2.88;;;;;;;13.60;47.14;101879.09;4996558;28;20058;-62
2024/03/17 06:03:11;;;;;;;7.53;3.17;;;;;;;13.64;47.56;101876.03;4997458;28;20033;-63
2024/03/17 06:05:40;;;;;;;4.50;2.78;;;;;;;13.69;47.16;101883.75;4981362;28;20038;-63
2024/03/17 06:08:08;;;;;;;6.22;2.72;;;;;;;13.72;46.94;101881.66;5013199;28;20042;-62
2024/03/17 06:10:34;;;;;;;3.97;2.83;;;;;;;13.76;47.20;101890.38;5012647;28;20034;-63
2024/03/17 06:13:00;;;;;;;4.50;2.50;;;;;;;13.80;47.79;101891.81;5013012;28;20045;-62
2024/03/17 06:15:26;;;;;;;4.22;3.30;;;;;;;13.85;47.96;101878.81;4995328;28;20053;-62
2024/03/17 06:17:52;;;;;;;4.95;2.92;;;;;;;13.87;47.35;101884.97;4998180;28;20100;-63
2024/03/17 06:20:21;;;;;;;3.55;2.65;;;;;;;13.91;46.71;101878.34;5001028;28;20022;-62
2024/03/17 06:22:46;;;;;;;5.20;3.03;;;;;;;14.01;46.44;101874.75;5001001;28;20072;-62
2024/03/17 06:25:15;;;;;;;5.55;2.88;;;;;;;14.13;47.69;101870.19;5002578;28;20025;-62
2024/03/17 06:27:40;;;;;;;5.13;3.47;;;;;;;14.18;47.52;101873.38;4985658;28;20037;-62
2024/03/17 06:30:06;;;;;;;6.93;3.20;;;;;;;14.17;46.89;101866.28;4984438;28;20394;-62
2024/03/17 06:32:35;;;;;;;4.78;2.95;;;;;;;14.29;46.30;101861.72;4998787;28;20076;-62
2024/03/17 06:35:03;;;;;;;4.20;3.03;;;;;;;14.36;47.18;101868.31;4999331;28;20516;-64
2024/03/17 06:37:28;;;;;;;3.95;2.83;;;;;;;14.49;46.08;101869.00;4999081;28;20493;-63
2024/03/17 06:39:54;;;;;;;3.65;2.90;;;;;;;14.69;45.65;101861.94;4998694;28;20113;-63
2024/03/17 06:42:20;;;;;;;4.78;2.97;;;;;;;14.82;46.45;101851.81;4998492;28;20405;-63
2024/03/17 06:44:45;;;;;;;8.98;3.50;;;;;;;14.98;46.76;101857.59;5016108;28;20180;-65
2024/03/17 06:47:11;;;;;;;5.68;2.67;;;;;;;15.11;46.20;101860.94;4982246;28;20045;-65
2024/03/17 06:49:36;;;;;;;3.72;2.67;;;;;;;15.29;45.65;101878.25;4998694;28;20026;-65
2024/03/17 06:52:02;;;;;;;7.90;3.08;;;;;;;15.47;46.89;101882.06;5015941;28;20034;-65
2024/03/17 06:54:27;;;;;;;4.82;2.65;;;;;;;15.64;46.60;101884.13;4982292;28;20038;-66
2024/03/17 06:56:52;;;;;;;2.80;2.30;;;;;;;15.84;46.16;101881.50;4998419;28;20029;-64
2024/03/17 06:59:20;;;;;;;5.95;3.20;;;;;;;16.02;46.32;101879.84;4998339;28;20026;-65
2024/03/17 07:01:46;;;;;;;4.93;2.88;;;;;;;16.17;45.87;101884.72;5015791;28;20056;-65
2024/03/17 07:04:12;;;;;;;2.47;2.22;;;;;;;16.32;45.45;101877.06;4998361;28;20457;-64
2024/03/17 07:06:38;;;;;;;4.18;2.60;;;;;;;16.44;46.11;101883.19;4981974;28;20550;-65
2024/03/17 07:09:03;;;;;;;3.88;2.20;;;;;;;16.60;46.56;101878.97;5015922;28;20042;-65
2024/03/17 07:11:28;;;;;;;3.47;2.50;;;;;;;16.76;45.90;101886.50;5015762;28;20580;-65
2024/03/17 07:13:54;;;;;;;2.17;1.88;;;;;;;16.94;45.60;101884.78;5015609;28;20410;-66
2024/03/17 07:16:21;;;;;;;2.58;1.77;;;;;;;17.14;46.00;101877.50;4997982;28;20113;-65
2024/03/17 07:18:47;;;;;;;4.88;3.05;;;;;;;17.25;45.82;101878.16;4998475;28;20061;-66
2024/03/17 07:21:13;;;;;;;6.72;2.17;;;;;;;17.43;44.94;101870.13;4997955;28;20130;-64
2024/03/17 07:23:38;;;;;;;4.13;2.47;;;;;;;17.57;45.83;101866.97;4998409;28;20030;-65
2024/03/17 07:26:09;;;;;;;3.97;2.33;;;;;;;17.66;44.79;101865.22;5015719;28;20084;-65
2024/03/17 07:28:34;;;;;;;5.78;2.00;;;;;;;17.72;44.84;101864.63;5014441;28;20034;-66
2024/03/17 07:31:00;;;;;;;2.38;1.70;;;;;;;17.75;45.09;101875.16;4997845;28;20046;-66
2024/03/17 07:33:26;;;;;;;2.95;2.08;;;;;;;17.75;45.47;101870.59;4998371;28;20080;-66
2024/03/17 07:35:53;;;;;;;5.28;2.30;;;;;;;17.78;45.07;101872.97;4997864;28;20095;-65
2024/03/17 07:38:19;;;;;;;4.25;2.13;;;;;;;17.79;45.14;101866.56;4997552;28;20038;-65
2024/03/17 07:40:46;;;;;;;4.07;1.90;;;;;;;17.83;44.54;101868.00;4997424;28;20037;-66
2024/03/17 07:43:12;;;;;;;3.60;2.55;;;;;;;17.86;44.92;101866.84;4997391;28;20121;-65
2024/03/17 07:45:37;;;;;;;2.50;2.10;;;;;;;17.96;44.34;101854.06;4997561;28;20120;-66
2024/03/17 07:48:03;;;;;;;2.97;1.95;;;;;;;17.98;44.21;101855.63;5014931;28;20030;-65
2024/03/17 07:50:28;;;;;;;7.90;2.30;;;;;;;17.96;44.99;101848.63;5014442;28;20467;-65
2024/03/17 07:52:54;;;;;;;4.18;2.20;;;;;;;17.97;44.29;101848.50;4996864;28;20088;-66
2024/03/17 07:55:19;;;;;;;4.03;2.22;;;;;;;17.99;44.26;101835.63;4980562;28;20038;-66
2024/03/17 07:57:44;;;;;;;4.22;3.20;;;;;;;18.00;44.16;101831.94;5014156;28;20065;-66
2024/03/17 08:00:15;;;;;;;7.35;2.42;;;;;;;18.03;44.30;101839.72;5014293;28;20026;-65
2024/03/17 08:02:50;;;;;;;2.95;2.08;;;;;;;18.10;44.35;101841.84;4997548;28;20038;-65
2024/03/17 08:05:15;;;;;;;3.80;2.25;;;;;;;18.31;43.66;101840.56;4980288;28;20041;-66
2024/03/17 08:07:42;;;;;;;5.20;2.45;;;;;;;18.64;43.96;101833.59;5014049;28;20037;-65
2024/03/17 08:10:07;;;;;;;5.05;2.50;;;;;;;18.85;43.51;101834.09;5014015;28;20034;-65
2024/03/17 08:12:33;;;;;;;7.10;2.60;;;;;;;18.72;43.72;101849.09;4980384;28;20040;-65
2024/03/17 08:14:59;;;;;;;3.80;2.20;;;;;;;18.65;43.63;101837.16;5014112;28;20049;-65
2024/03/17 08:17:25;;;;;;;4.43;2.30;;;;;;;18.59;44.07;101828.63;5014043;28;20034;-65
2024/03/17 08:19:50;;;;;;;3.78;2.10;;;;;;;18.58;43.96;101831.50;4980559;28;20084;-65
2024/03/17 08:22:15;;;;;;;4.40;2.53;;;;;;;18.57;44.02;101830.66;4996741;28;20490;-67
2024/03/17 08:24:41;;;;;;;3.92;2.35;;;;;;;18.62;43.85;101834.78;4996739;28;20556;-65
2024/03/17 08:27:06;;;;;;;4.60;2.60;;;;;;;18.68;43.90;101829.53;5014218;28;20576;-65
2024/03/17 08:29:33;;;;;;;4.60;2.65;;;;;;;18.78;43.75;101827.59;5014267;28;20033;-64
2024/03/17 08:31:58;;;;;;;5.68;3.13;;;;;;;18.91;43.41;101838.91;4996442;28;20038;-65
2024/03/17 08:34:24;;;;;;;7.93;2.50;;;;;;;19.09;42.91;101828.84;4996574;28;20084;-65
2024/03/17 08:36:49;;;;;;;4.88;2.78;;;;;;;19.44;42.73;101835.19;4980489;28;20402;-65
2024/03/17 08:39:14;;;;;;;5.85;3.55;;;;;;;19.64;42.95;101825.78;4996373;28;20040;-65
2024/03/17 08:41:40;;;;;;;4.47;2.60;;;;;;;19.72;43.30;101828.53;4996348;28;20113;-66
2024/03/17 08:44:06;;;;;;;3.30;2.58;;;;;;;19.75;43.10;101820.91;4996512;28;20053;-65
2024/03/17 08:46:32;;;;;;;5.60;3.13;;;;;;;19.90;43.33;101820.25;4996320;28;20065;-65
2024/03/17 08:48:57;;;;;;;8.05;2.83;;;;;;;20.15;42.67;101824.75;5014097;28;20034;-66
2024/03/17 08:51:23;;;;;;;4.07;2.90;;;;;;;20.28;42.15;101826.00;4996193;28;20136;-65
2024/03/17 08:53:49;;;;;;;3.65;2.22;;;;;;;20.32;43.21;101813.72;4996476;28;20464;-66
2024/03/17 08:56:14;;;;;;;7.53;3.05;;;;;;;20.46;42.79;101816.81;4996094;28;20088;-65
2024/03/17 08:58:39;;;;;;;5.15;2.88;;;;;;;20.54;42.44;101819.56;4979777;28;20036;-65
2024/03/17 09:01:06;;;;;;;6.28;2.67;;;;;;;20.58;42.19;101820.91;4996569;28;20076;-65
2024/03/17 09:03:32;;;;;;;6.28;2.30;;;;;;;20.56;42.05;101817.50;4996420;28;20033;-65
2024/03/17 09:05:58;;;;;;;6.60;3.03;;;;;;;20.58;42.28;101820.91;4979724;28;20034;-65
2024/03/17 09:08:24;;;;;;;5.45;3.30;;;;;;;20.58;42.48;101815.44;5013610;28;20080;-65
2024/03/17 09:10:52;;;;;;;9.15;2.80;;;;;;;20.60;42.60;101814.25;4995703;28;20494;-65
2024/03/17 09:13:19;;;;;;;4.68;2.97;;;;;;;20.65;42.32;101808.31;4996197;28;20037;-66
2024/03/17 09:16:01;;;;;;;5.60;2.75;;;;;;;20.74;42.24;101810.84;4979678;28;20034;-65
2024/03/17 09:18:31;;;;;;;5.95;3.75;;;;;;;20.87;42.10;101813.94;5013375;28;20030;-65
2024/03/17 09:21:07;;;;;;;6.85;2.70;;;;;;;21.09;41.83;101815.09;4995823;28;20057;-65
2024/03/17 09:23:36;;;;;;;4.25;2.97;;;;;;;21.25;40.85;101808.75;4995989;28;20038;-65
2024/03/17 09:26:08;;;;;;;6.40;3.05;;;;;;;21.43;40.82;101802.06;4996091;28;20044;-65
2024/03/17 09:28:34;;;;;;;5.00;3.20;;;;;;;21.60;41.04;101796.53;4996125;28;20030;-65
2024/03/17 09:30:59;;;;;;;3.97;2.13;;;;;;;21.76;40.52;101808.22;4996232;28;20037;-64
2024/03/17 09:33:26;;;;;;;4.20;2.40;;;;;;;21.90;41.03;101809.38;4996311;28;20044;-65
2024/03/17 09:36:01;;;;;;;5.70;2.20;;;;;;;22.19;40.03;101815.00;5012889;28;20073;-66
2024/03/17 09:38:27;;;;;;;3.60;2.28;;;;;;;22.42;40.82;101804.06;4996472;28;20046;-66
2024/03/17 09:40:54;;;;;;;6.70;2.45;;;;;;;22.81;40.02;101803.97;4996434;28;20018;-65
2024/03/17 09:43:20;;;;;;;3.17;2.58;;;;;;;23.16;39.68;101797.78;4996673;28;20108;-67
2024/03/17 09:45:46;;;;;;;5.68;2.30;;;;;;;23.53;39.22;101805.94;5013202;28;20046;-67
2024/03/17 09:48:17;;;;;;;4.35;2.10;;;;;;;23.72;39.23;101799.88;4995346;28;20450;-66
2024/03/17 09:50:53;;;;;;;3.55;2.65;;;;;;;23.62;39.41;101806.66;4996386;28;20022;-67
2024/03/17 09:53:29;;;;;;;10.35;3.60;;;;;;;23.57;39.01;101799.03;5016023;28;20084;-67
2024/03/17 09:56:00;;;;;;;7.75;2.42;;;;;;;23.52;39.21;101797.91;4999415;28;20049;-66
2024/03/17 09:58:26;;;;;;;4.28;2.60;;;;;;;23.64;39.47;101797.25;4982845;28;20034;-65
2024/03/17 10:00:51;;;;;;;3.63;2.58;;;;;;;23.74;38.64;101799.66;5017232;28;20045;-65
2024/03/17 10:03:45;;;;;;;5.40;2.60;;;;;;;23.71;39.19;101800.06;4999395;28;20034;-65
2024/03/17 10:06:14;;;;;;;5.57;2.38;;;;;;;23.58;38.98;101808.94;5016792;28;20029;-64
2024/03/17 10:08:46;;;;;;;2.20;1.88;;;;;;;23.45;39.08;101811.47;5016777;28;20038;-65
2024/03/17 10:11:13;;;;;;;3.33;2.10;;;;;;;23.31;39.05;101809.56;4983098;28;20046;-65
2024/03/17 10:13:39;;;;;;;4.82;2.42;;;;;;;23.24;38.55;101810.50;4982503;28;20398;-64
2024/03/17 10:16:04;;;;;;;4.85;2.35;;;;;;;23.15;39.33;101802.41;4999052;28;20038;-64
2024/03/17 10:18:30;;;;;;;3.97;2.40;;;;;;;23.13;39.27;101803.63;4998766;28;20038;-64
2024/03/17 10:20:57;;;;;;;4.22;2.58;;;;;;;23.10;38.89;101804.00;4999195;28;20034;-64
2024/03/17 10:23:23;;;;;;;5.63;2.25;;;;;;;23.01;39.16;101805.13;4999095;28;20057;-64
2024/03/17 10:25:48;;;;;;;7.00;2.50;;;;;;;22.86;39.20;101796.91;4999065;28;20548;-64
2024/03/17 10:28:16;;;;;;;3.70;2.25;;;;;;;22.80;39.64;101803.13;4983118;28;20042;-64
2024/03/17 10:30:42;;;;;;;4.45;2.10;;;;;;;22.85;39.33;101799.81;4983206;28;20559;-66
2024/03/17 10:33:22;;;;;;;3.47;2.08;;;;;;;22.90;39.00;101802.84;4999569;28;20038;-64
2024/03/17 10:35:48;;;;;;;2.53;2.22;;;;;;;22.90;39.01;101797.38;4982685;28;20038;-64
2024/03/17 10:38:14;;;;;;;6.32;2.50;;;;;;;22.83;39.14;101801.91;4999130;28;20455;-64
2024/03/17 10:40:40;;;;;;;2.35;2.03;;;;;;;22.82;38.63;101795.56;4982786;28;20080;-65
2024/03/17 10:43:06;;;;;;;2.95;1.90;;;;;;;22.81;39.09;101793.03;4998754;28;20034;-65
2024/03/17 10:45:35;;;;;;;3.15;1.90;;;;;;;22.84;38.66;101798.97;4998789;28;20091;-64
2024/03/17 10:48:03;;;;;;;3.00;1.75;;;;;;;22.92;38.90;101795.31;5016385;28;20045;-64
2024/03/17 10:50:30;;;;;;;4.72;2.30;;;;;;;22.99;38.82;101799.00;4998669;28;20524;-64
2024/03/17 10:53:02;;;;;;;3.67;2.15;;;;;;;23.05;38.48;101801.00;4998216;28;20038;-64
2024/03/17 10:55:29;;;;;;;3.72;1.65;;;;;;;23.08;38.88;101795.16;4998869;28;20057;-64
2024/03/17 10:57:58;;;;;;;3.65;1.95;;;;;;;23.08;38.51;101786.94;4998559;28;20033;-64
2024/03/17 11:00:24;;;;;;;5.97;2.13;;;;;;;23.08;38.57;101789.69;5015985;28;20065;-64
2024/03/17 11:02:51;;;;;;;3.20;1.98;;;;;;;23.04;38.82;101785.63;5015541;28;20034;-64
2024/03/17 11:05:24;;;;;;;4.40;2.25;;;;;;;22.98;39.11;101789.94;4998272;28;20117;-65
2024/03/17 11:07:51;;;;;;;5.32;2.00;;;;;;;22.93;38.72;101786.06;4997950;28;20045;-64
2024/03/17 11:10:26;;;;;;;4.93;2.25;;;;;;;22.82;38.49;101794.72;5015592;28;20053;-64
2024/03/17 11:12:56;;;;;;;4.43;2.03;;;;;;;22.73;38.35;101787.63;5015922;28;20028;-64
2024/03/17 11:15:29;;;;;;;2.60;1.70;;;;;;;22.74;38.68;101789.34;4982103;28;20037;-64
2024/03/17 11:18:10;;;;;;;2.47;1.73;;;;;;;22.82;38.47;101794.72;5015822;28;20121;-65
2024/03/17 11:20:39;;;;;;;4.50;1.67;;;;;;;22.85;38.79;101786.16;5015687;28;20029;-64
2024/03/17 11:23:05;;;;;;;3.47;2.47;;;;;;;22.80;38.87;101777.66;4998315;28;20038;-64